Time;durP1;ratioP1;P1;durP2;ratioP2;P2;SDS_P1;SDS_P2;PMS_P1;PMS_P2;Temp;Humidity;BMP_temperature;BMP_pressure;BME280_temperature;BME280_humidity;BME280_pressure;Samples;Min_cycle;Max_cycle;Signal;HPM_P1;HPM_P2
2021/06/08 00:00:20;;;;;;;;;;;14.50;98.10;;;;;;5000421;28;19922;-68
2021/06/08 00:02:46;;;;;;;;;;;14.40;98.00;;;;;;4997418;28;19917;-67
2021/06/08 00:05:12;;;;;;;;;;;14.30;98.00;;;;;;4999001;28;20389;-68
2021/06/08 00:07:37;;;;;;;;;;;14.20;98.00;;;;;;5001122;28;19962;-67
2021/06/08 00:10:04;;;;;;;;;;;14.10;98.00;;;;;;5001261;28;20003;-68
2021/06/08 00:12:29;;;;;;;;;;;14.00;98.10;;;;;;4999080;28;19931;-69
2021/06/08 00:14:55;;;;;;;;;;;14.00;98.30;;;;;;5000246;28;19984;-68
2021/06/08 00:17:20;;;;;;;;;;;14.00;98.40;;;;;;4998094;28;19917;-68
2021/06/08 00:19:46;;;;;;;;;;;13.90;98.40;;;;;;4999361;28;19913;-68
2021/06/08 00:22:11;;;;;;;;;;;13.90;98.50;;;;;;5001805;28;19936;-68
2021/06/08 00:24:37;;;;;;;;;;;13.80;98.50;;;;;;4998872;28;20350;-68
2021/06/08 00:27:02;;;;;;;;;;;13.70;98.50;;;;;;5000775;28;19936;-68
2021/06/08 00:29:28;;;;;;;;;;;13.60;98.50;;;;;;5000702;28;19975;-68
2021/06/08 00:31:53;;;;;;;;;;;13.60;98.50;;;;;;4998087;28;19928;-68
2021/06/08 00:34:19;;;;;;;;;;;13.60;98.60;;;;;;5001143;28;19981;-68
2021/06/08 00:36:44;;;;;;;;;;;13.50;98.60;;;;;;4999278;28;19984;-68
2021/06/08 00:39:10;;;;;;;;;;;13.50;98.70;;;;;;4998822;28;20147;-68
2021/06/08 00:41:37;;;;;;;;;;;13.40;98.70;;;;;;5000978;28;20010;-68
2021/06/08 00:44:05;;;;;;;;;;;13.30;98.60;;;;;;5001308;28;20011;-68
2021/06/08 00:46:30;;;;;;;;;;;13.30;98.70;;;;;;4998124;28;20369;-68
2021/06/08 00:48:56;;;;;;;;;;;13.30;98.70;;;;;;5000467;28;20032;-68
2021/06/08 00:51:21;;;;;;;;;;;13.10;98.70;;;;;;4999160;28;20069;-67
2021/06/08 00:53:47;;;;;;;;;;;13.10;98.80;;;;;;5000766;28;19917;-68
2021/06/08 00:56:12;;;;;;;;;;;13.10;98.80;;;;;;4996727;28;20028;-68
2021/06/08 00:58:38;;;;;;;;;;;13.00;98.70;;;;;;4999243;28;20251;-68
2021/06/08 01:01:03;;;;;;;;;;;13.00;98.80;;;;;;5001373;28;19941;-67
2021/06/08 01:03:32;;;;;;;;;;;13.10;98.90;;;;;;4999893;28;20016;-67
2021/06/08 01:05:58;;;;;;;;;;;13.00;98.80;;;;;;5003985;28;20373;-69
2021/06/08 01:08:23;;;;;;;;;;;13.00;98.90;;;;;;5000057;28;19913;-68
2021/06/08 01:10:48;;;;;;;;;;;13.00;98.90;;;;;;5018077;28;19921;-69
2021/06/08 01:13:14;;;;;;;;;;;12.90;98.90;;;;;;5001417;28;19913;-68
2021/06/08 01:15:39;;;;;;;;;;;12.90;99.00;;;;;;5004737;28;20323;-68
2021/06/08 01:18:05;;;;;;;;;;;12.90;99.00;;;;;;4991742;28;20309;-68
2021/06/08 01:20:31;;;;;;;;;;;12.80;99.00;;;;;;5000988;28;19920;-68
2021/06/08 01:22:56;;;;;;;;;;;12.80;99.00;;;;;;5004703;28;20424;-68
2021/06/08 01:25:22;;;;;;;;;;;12.80;99.10;;;;;;5002912;28;19971;-69
2021/06/08 01:27:49;;;;;;;;;;;12.70;99.00;;;;;;5002955;28;20009;-69
2021/06/08 01:30:15;;;;;;;;;;;12.80;99.10;;;;;;5005661;28;20000;-68
2021/06/08 01:32:41;;;;;;;;;;;12.70;99.00;;;;;;5005510;28;20330;-69
2021/06/08 01:35:08;;;;;;;;;;;12.70;99.10;;;;;;5006410;28;19910;-69
2021/06/08 01:37:33;;;;;;;;;;;12.80;99.10;;;;;;5004519;28;20342;-66
2021/06/08 01:40:00;;;;;;;;;;;12.80;99.20;;;;;;5005363;28;20031;-69
2021/06/08 01:42:26;;;;;;;;;;;12.90;99.20;;;;;;5005828;28;19940;-68
2021/06/08 01:44:52;;;;;;;;;;;13.00;99.20;;;;;;5005986;28;20004;-69
2021/06/08 01:47:17;;;;;;;;;;;13.10;99.20;;;;;;5005662;28;19917;-68
2021/06/08 01:49:43;;;;;;;;;;;13.10;99.20;;;;;;5005792;28;20007;-69
2021/06/08 01:52:17;;;;;;;;;;;13.20;99.30;;;;;;5004472;28;19917;-68
2021/06/08 01:54:50;;;;;;;;;;;13.30;99.20;;;;;;5005714;28;19936;-68
2021/06/08 01:57:22;;;;;;;;;;;13.40;99.20;;;;;;5000347;28;19944;-68
2021/06/08 01:59:47;;;;;;;;;;;13.40;99.20;;;;;;5005834;28;20352;-69
2021/06/08 02:02:23;;;;;;;;;;;13.50;99.20;;;;;;5003284;28;20032;-70
2021/06/08 02:04:52;;;;;;;;;;;13.60;99.20;;;;;;5006503;28;20274;-69
2021/06/08 02:07:29;;;;;;;;;;;13.60;99.20;;;;;;5005461;28;19925;-69
2021/06/08 02:09:55;;;;;;;;;;;13.70;99.20;;;;;;5003436;28;20337;-69
2021/06/08 02:12:21;;;;;;;;;;;13.70;99.20;;;;;;5005089;28;19918;-68
2021/06/08 02:14:52;;;;;;;;;;;13.80;99.20;;;;;;5005037;28;20286;-68
2021/06/08 02:17:18;;;;;;;;;;;13.80;99.20;;;;;;5003146;28;20270;-68
2021/06/08 02:19:45;;;;;;;;;;;13.80;99.20;;;;;;5006170;28;20180;-68
2021/06/08 02:22:11;;;;;;;;;;;13.90;99.20;;;;;;5004674;28;20022;-68
2021/06/08 02:24:37;;;;;;;;;;;13.90;99.20;;;;;;5005654;28;20375;-67
2021/06/08 02:27:04;;;;;;;;;;;13.90;99.20;;;;;;5002506;28;20366;-69
2021/06/08 02:29:30;;;;;;;;;;;13.90;99.20;;;;;;5004707;28;19913;-68
2021/06/08 02:31:56;;;;;;;;;;;14.00;99.10;;;;;;5001635;28;19947;-68
2021/06/08 02:34:22;;;;;;;;;;;14.00;99.10;;;;;;5004888;28;19913;-68
2021/06/08 02:36:48;;;;;;;;;;;14.00;99.10;;;;;;5002635;28;19917;-68
2021/06/08 02:39:15;;;;;;;;;;;14.00;99.10;;;;;;5004148;28;19913;-68
2021/06/08 02:41:41;;;;;;;;;;;14.00;99.00;;;;;;5004513;28;19917;-68
2021/06/08 02:44:07;;;;;;;;;;;14.00;99.00;;;;;;5005130;28;20036;-66
2021/06/08 02:46:33;;;;;;;;;;;14.00;99.00;;;;;;5004459;28;19909;-68
2021/06/08 02:48:59;;;;;;;;;;;14.00;99.00;;;;;;5004011;28;19983;-68
2021/06/08 02:51:25;;;;;;;;;;;14.00;99.00;;;;;;5003952;28;19932;-68
2021/06/08 02:53:52;;;;;;;;;;;14.10;98.90;;;;;;5003866;28;19940;-68
2021/06/08 02:56:18;;;;;;;;;;;14.00;98.90;;;;;;5001200;28;19909;-68
2021/06/08 02:58:44;;;;;;;;;;;14.10;98.90;;;;;;5001573;28;19917;-67
2021/06/08 03:01:11;;;;;;;;;;;14.10;98.90;;;;;;5004515;28;20008;-68
2021/06/08 03:03:38;;;;;;;;;;;14.10;98.80;;;;;;5002793;28;19944;-67
2021/06/08 03:06:23;;;;;;;;;;;14.10;98.80;;;;;;5003701;28;20329;-68
2021/06/08 03:08:54;;;;;;;;;;;14.10;98.70;;;;;;5003083;28;19913;-68
2021/06/08 03:11:22;;;;;;;;;;;14.10;98.70;;;;;;5002040;28;19917;-67
2021/06/08 03:13:49;;;;;;;;;;;14.10;98.70;;;;;;5001797;28;19925;-68
2021/06/08 03:16:15;;;;;;;;;;;14.10;98.70;;;;;;5003507;28;20071;-68
2021/06/08 03:18:42;;;;;;;;;;;14.10;98.70;;;;;;5003408;28;20625;-68
2021/06/08 03:21:14;;;;;;;;;;;14.10;98.60;;;;;;5002952;28;20369;-66
2021/06/08 03:23:42;;;;;;;;;;;14.10;98.60;;;;;;5003225;28;19921;-68
2021/06/08 03:26:08;;;;;;;;;;;14.10;98.50;;;;;;5004914;28;20361;-68
2021/06/08 03:28:34;;;;;;;;;;;14.10;98.50;;;;;;5001318;28;19925;-68
2021/06/08 03:31:00;;;;;;;;;;;14.10;98.50;;;;;;5004093;28;20008;-68
2021/06/08 03:33:25;;;;;;;;;;;14.20;98.50;;;;;;5002182;28;20474;-68
2021/06/08 03:35:52;;;;;;;;;;;14.10;98.40;;;;;;5002089;28;20354;-68
2021/06/08 03:38:19;;;;;;;;;;;14.10;98.50;;;;;;5000242;28;19981;-68
2021/06/08 03:40:45;;;;;;;;;;;14.20;98.50;;;;;;5003853;28;19983;-68
2021/06/08 03:43:12;;;;;;;;;;;14.20;98.40;;;;;;5003040;28;20194;-68
2021/06/08 03:45:37;;;;;;;;;;;14.20;98.40;;;;;;5003804;28;19921;-68
2021/06/08 03:48:03;;;;;;;;;;;14.30;98.40;;;;;;5003135;28;20359;-68
2021/06/08 03:50:29;;;;;;;;;;;14.30;98.40;;;;;;5002620;28;20240;-68
2021/06/08 03:52:56;;;;;;;;;;;14.30;98.30;;;;;;5001185;28;19913;-68
2021/06/08 03:55:22;;;;;;;;;;;14.30;98.30;;;;;;5002422;28;19920;-69
2021/06/08 03:57:52;;;;;;;;;;;14.30;98.20;;;;;;4999850;28;19917;-69
2021/06/08 04:00:17;;;;;;;;;;;14.30;98.20;;;;;;5002950;28;20278;-69
2021/06/08 04:02:43;;;;;;;;;;;14.30;98.10;;;;;;5002988;28;19959;-68
2021/06/08 04:05:09;;;;;;;;;;;14.30;98.00;;;;;;5003630;28;20032;-69
2021/06/08 04:07:37;;;;;;;;;;;14.30;98.00;;;;;;5000986;28;19913;-68
2021/06/08 04:10:03;;;;;;;;;;;14.30;98.00;;;;;;4997244;28;19925;-68
2021/06/08 04:12:29;;;;;;;;;;;14.40;97.90;;;;;;4998421;28;20007;-69
2021/06/08 04:14:55;;;;;;;;;;;14.40;97.90;;;;;;5002873;28;19970;-69
2021/06/08 04:17:20;;;;;;;;;;;14.40;97.90;;;;;;5005584;28;20004;-69
2021/06/08 04:19:47;;;;;;;;;;;14.50;97.80;;;;;;5003168;28;20008;-70
2021/06/08 04:22:24;;;;;;;;;;;14.50;97.80;;;;;;5001021;28;19936;-70
2021/06/08 04:24:49;;;;;;;;;;;14.60;97.70;;;;;;4999907;28;19952;-69
2021/06/08 04:27:20;;;;;;;;;;;14.70;97.70;;;;;;5003078;28;19916;-70
2021/06/08 04:29:46;;;;;;;;;;;14.80;97.60;;;;;;5002920;28;19965;-69
2021/06/08 04:32:11;;;;;;;;;;;14.80;97.50;;;;;;5001299;28;19917;-69
2021/06/08 04:34:37;;;;;;;;;;;14.80;97.30;;;;;;4999849;28;19914;-70
2021/06/08 04:37:02;;;;;;;;;;;14.90;97.00;;;;;;5004119;28;19940;-70
2021/06/08 04:39:28;;;;;;;;;;;14.90;97.00;;;;;;5016363;28;19937;-69
2021/06/08 04:41:53;;;;;;;;;;;14.90;96.80;;;;;;5003220;28;20052;-71
2021/06/08 04:44:22;;;;;;;;;;;15.00;96.70;;;;;;5000326;28;19971;-70
2021/06/08 04:46:48;;;;;;;;;;;15.10;96.70;;;;;;5000401;28;19940;-71
2021/06/08 04:49:16;;;;;;;;;;;15.10;96.50;;;;;;5002966;28;19917;-70
2021/06/08 04:51:41;;;;;;;;;;;15.20;96.30;;;;;;5006206;28;20015;-68
2021/06/08 04:54:07;;;;;;;;;;;15.30;96.20;;;;;;5004723;28;20293;-70
2021/06/08 04:56:32;;;;;;;;;;;15.40;95.70;;;;;;5005844;28;19921;-70
2021/06/08 04:58:58;;;;;;;;;;;15.50;95.50;;;;;;5004334;28;19917;-70
2021/06/08 05:01:27;;;;;;;;;;;15.50;95.50;;;;;;5004908;28;19940;-69
2021/06/08 05:03:57;;;;;;;;;;;15.60;95.40;;;;;;5005432;28;20255;-70
2021/06/08 05:06:26;;;;;;;;;;;15.80;95.30;;;;;;5006753;28;20020;-70
2021/06/08 05:08:56;;;;;;;;;;;15.80;94.90;;;;;;5005752;28;20008;-68
2021/06/08 05:11:23;;;;;;;;;;;15.80;94.50;;;;;;5006582;28;19917;-68
2021/06/08 05:13:49;;;;;;;;;;;16.00;94.60;;;;;;5003905;28;19914;-68
2021/06/08 05:16:15;;;;;;;;;;;16.00;94.20;;;;;;5003829;28;19933;-68
2021/06/08 05:18:41;;;;;;;;;;;16.00;93.70;;;;;;5010132;28;19933;-71
2021/06/08 05:21:09;;;;;;;;;;;16.00;93.50;;;;;;5006337;28;19959;-69
2021/06/08 05:23:34;;;;;;;;;;;16.10;93.70;;;;;;5005021;28;20099;-71
2021/06/08 05:26:00;;;;;;;;;;;16.10;93.50;;;;;;5001613;28;19918;-70
2021/06/08 05:28:26;;;;;;;;;;;16.20;93.30;;;;;;4999189;28;20054;-69
2021/06/08 05:30:52;;;;;;;;;;;16.10;92.70;;;;;;5003622;28;19936;-69
2021/06/08 05:33:18;;;;;;;;;;;16.20;93.10;;;;;;5004185;28;19910;-69
2021/06/08 05:35:44;;;;;;;;;;;16.20;92.80;;;;;;5005905;28;19931;-69
2021/06/08 05:38:09;;;;;;;;;;;16.30;93.10;;;;;;5004639;28;19909;-70
2021/06/08 05:40:39;;;;;;;;;;;16.40;92.70;;;;;;5007625;28;19961;-70
2021/06/08 05:43:05;;;;;;;;;;;16.30;91.70;;;;;;5003789;28;20002;-69
2021/06/08 05:45:31;;;;;;;;;;;16.30;92.60;;;;;;5006973;28;19976;-69
2021/06/08 05:47:57;;;;;;;;;;;16.30;92.20;;;;;;5015004;28;19940;-69
2021/06/08 05:50:22;;;;;;;;;;;16.40;91.90;;;;;;5022680;28;19928;-71
2021/06/08 05:52:49;;;;;;;;;;;16.40;91.40;;;;;;5022519;28;19913;-69
2021/06/08 05:55:15;;;;;;;;;;;16.50;92.00;;;;;;5025549;28;20303;-68
2021/06/08 05:57:45;;;;;;;;;;;16.40;92.00;;;;;;5024172;28;19987;-70
2021/06/08 06:00:11;;;;;;;;;;;16.40;91.70;;;;;;5023409;28;19961;-69
2021/06/08 06:02:36;;;;;;;;;;;16.60;92.00;;;;;;5020423;28;20390;-70
2021/06/08 06:05:03;;;;;;;;;;;16.70;91.60;;;;;;5014377;28;20019;-71
2021/06/08 06:07:29;;;;;;;;;;;16.80;91.90;;;;;;5022329;28;20364;-69
2021/06/08 06:09:55;;;;;;;;;;;16.90;91.90;;;;;;5020920;28;19913;-70
2021/06/08 06:12:21;;;;;;;;;;;16.90;91.10;;;;;;5025820;28;19913;-69
2021/06/08 06:14:47;;;;;;;;;;;16.80;90.50;;;;;;5015023;28;19913;-69
2021/06/08 06:17:13;;;;;;;;;;;17.00;90.70;;;;;;5022875;28;19909;-70
2021/06/08 06:19:39;;;;;;;;;;;17.00;90.40;;;;;;5020239;28;20490;-69
2021/06/08 06:22:05;;;;;;;;;;;17.00;90.10;;;;;;5031187;28;19967;-68
2021/06/08 06:24:33;;;;;;;;;;;17.00;90.60;;;;;;5019012;28;19917;-68
2021/06/08 06:26:59;;;;;;;;;;;17.10;89.60;;;;;;5017698;28;19932;-70
2021/06/08 06:29:24;;;;;;;;;;;17.30;90.40;;;;;;5023856;28;20020;-69
2021/06/08 06:31:50;;;;;;;;;;;17.50;89.60;;;;;;5023517;28;19975;-69
2021/06/08 06:34:17;;;;;;;;;;;17.60;88.80;;;;;;5021367;28;19913;-70
2021/06/08 06:36:45;;;;;;;;;;;17.60;88.10;;;;;;5025212;28;19921;-69
2021/06/08 06:39:15;;;;;;;;;;;17.50;88.10;;;;;;5022208;28;19914;-69
2021/06/08 06:41:42;;;;;;;;;;;17.60;88.30;;;;;;5021386;28;19929;-69
2021/06/08 06:44:08;;;;;;;;;;;17.70;88.70;;;;;;5019703;28;20408;-69
2021/06/08 06:46:33;;;;;;;;;;;17.90;87.30;;;;;;5022802;28;19999;-70
2021/06/08 06:48:59;;;;;;;;;;;18.00;87.30;;;;;;5021813;28;19953;-70
2021/06/08 06:51:25;;;;;;;;;;;18.30;87.10;;;;;;5021487;28;19954;-70
2021/06/08 06:53:51;;;;;;;;;;;18.60;86.40;;;;;;5020428;28;19917;-69
2021/06/08 06:56:21;;;;;;;;;;;18.70;85.80;;;;;;5035631;28;19913;-70
2021/06/08 06:58:47;;;;;;;;;;;19.00;86.90;;;;;;5022566;28;19917;-69
2021/06/08 07:01:13;;;;;;;;;;;18.80;85.60;;;;;;5024565;28;19923;-69
2021/06/08 07:03:39;;;;;;;;;;;19.00;86.60;;;;;;5022795;28;20011;-69
2021/06/08 07:06:04;;;;;;;;;;;19.00;83.90;;;;;;5024172;28;20303;-70
2021/06/08 07:08:31;;;;;;;;;;;18.90;85.70;;;;;;5017684;28;20254;-69
2021/06/08 07:10:56;;;;;;;;;;;19.00;83.70;;;;;;5024387;28;20035;-69
2021/06/08 07:13:22;;;;;;;;;;;19.00;84.20;;;;;;5019474;28;20297;-70
2021/06/08 07:15:49;;;;;;;;;;;19.10;83.70;;;;;;5020181;28;19986;-68
2021/06/08 07:18:14;;;;;;;;;;;19.00;83.00;;;;;;5021436;28;19994;-70
2021/06/08 07:20:40;;;;;;;;;;;18.90;85.30;;;;;;5023529;28;20293;-70
2021/06/08 07:23:06;;;;;;;;;;;19.10;84.70;;;;;;5023150;28;20296;-69
2021/06/08 07:25:38;;;;;;;;;;;19.40;84.10;;;;;;5023634;28;20476;-70
2021/06/08 07:28:04;;;;;;;;;;;19.60;83.90;;;;;;5021564;28;19931;-69
2021/06/08 07:30:30;;;;;;;;;;;19.80;83.60;;;;;;5022538;28;19937;-69
2021/06/08 07:33:19;;;;;;;;;;;19.70;82.00;;;;;;5018875;28;20016;-71
2021/06/08 07:36:04;;;;;;;;;;;19.80;83.80;;;;;;5018173;28;19928;-70
2021/06/08 07:38:30;;;;;;;;;;;19.80;81.80;;;;;;5012176;28;20559;-69
2021/06/08 07:41:04;;;;;;;;;;;19.80;81.50;;;;;;5022572;28;19943;-69
2021/06/08 07:43:34;;;;;;;;;;;20.00;81.40;;;;;;5022419;28;19917;-69
2021/06/08 07:46:02;;;;;;;;;;;20.50;80.70;;;;;;5023277;28;20137;-70
2021/06/08 07:48:28;;;;;;;;;;;20.30;79.70;;;;;;5022394;28;19968;-69
2021/06/08 07:50:55;;;;;;;;;;;20.70;79.00;;;;;;5024419;28;19996;-68
2021/06/08 07:53:22;;;;;;;;;;;20.50;80.30;;;;;;5022192;28;20344;-70
2021/06/08 07:55:49;;;;;;;;;;;20.20;78.90;;;;;;5021522;28;19973;-71
2021/06/08 07:58:22;;;;;;;;;;;20.30;79.10;;;;;;5019074;28;19964;-70
2021/06/08 08:00:47;;;;;;;;;;;20.50;80.10;;;;;;5020053;28;19917;-70
2021/06/08 08:03:28;;;;;;;;;;;20.30;79.10;;;;;;5023256;28;19917;-69
2021/06/08 08:05:56;;;;;;;;;;;20.30;79.70;;;;;;5020734;28;19917;-71
2021/06/08 08:08:22;;;;;;;;;;;20.30;78.90;;;;;;5020334;28;19950;-69
2021/06/08 08:10:48;;;;;;;;;;;20.40;79.00;;;;;;5014707;28;19913;-70
2021/06/08 08:13:15;;;;;;;;;;;20.50;79.10;;;;;;5010301;28;19921;-70
2021/06/08 08:15:48;;;;;;;;;;;20.30;78.90;;;;;;5008883;28;19928;-70
2021/06/08 08:18:14;;;;;;;;;;;20.60;79.70;;;;;;5002586;28;19960;-70
2021/06/08 08:20:45;;;;;;;;;;;20.70;79.20;;;;;;5021127;28;19952;-70
2021/06/08 08:23:11;;;;;;;;;;;21.00;77.40;;;;;;5018056;28;19917;-70
2021/06/08 08:25:36;;;;;;;;;;;21.10;79.00;;;;;;5016688;28;19913;-71
2021/06/08 08:28:02;;;;;;;;;;;21.20;78.10;;;;;;5011587;28;19921;-70
2021/06/08 08:30:28;;;;;;;;;;;21.40;78.40;;;;;;5013304;28;20043;-71
2021/06/08 08:32:53;;;;;;;;;;;21.60;74.70;;;;;;5019650;28;20004;-71
2021/06/08 08:35:19;;;;;;;;;;;21.50;75.80;;;;;;5018900;28;19932;-70
2021/06/08 08:37:44;;;;;;;;;;;21.00;76.90;;;;;;5020600;28;19970;-70
2021/06/08 08:40:10;;;;;;;;;;;21.00;77.60;;;;;;5017696;28;19921;-71
2021/06/08 08:42:36;;;;;;;;;;;21.10;75.80;;;;;;5016980;28;19968;-70
2021/06/08 08:45:01;;;;;;;;;;;21.50;77.20;;;;;;5015987;28;19979;-69
2021/06/08 08:47:27;;;;;;;;;;;21.80;75.80;;;;;;5019020;28;19964;-71
2021/06/08 08:49:52;;;;;;;;;;;22.10;76.30;;;;;;5015454;28;20013;-70
2021/06/08 08:52:20;;;;;;;;;;;22.70;74.40;;;;;;5021274;28;19957;-70
2021/06/08 08:54:47;;;;;;;;;;;22.50;71.30;;;;;;5017372;28;19913;-69
2021/06/08 08:57:15;;;;;;;;;;;22.90;74.10;;;;;;5020493;28;19950;-69
2021/06/08 08:59:41;;;;;;;;;;;22.80;70.30;;;;;;5018553;28;19944;-69
2021/06/08 09:02:08;;;;;;;;;;;22.80;73.50;;;;;;5020642;28;20346;-70
2021/06/08 09:04:33;;;;;;;;;;;23.00;70.90;;;;;;5017601;28;19917;-69
2021/06/08 09:06:59;;;;;;;;;;;22.80;71.50;;;;;;5028790;28;19921;-69
2021/06/08 09:09:24;;;;;;;;;;;22.50;71.10;;;;;;5015593;28;20377;-70
2021/06/08 09:11:50;;;;;;;;;;;22.50;73.00;;;;;;5023568;28;20007;-69
2021/06/08 09:14:16;;;;;;;;;;;22.90;70.70;;;;;;5018688;28;20228;-70
2021/06/08 09:16:41;;;;;;;;;;;22.80;73.10;;;;;;5020261;28;20234;-70
2021/06/08 09:19:08;;;;;;;;;;;22.60;72.50;;;;;;5019007;28;20341;-70
2021/06/08 09:21:38;;;;;;;;;;;22.50;71.70;;;;;;5020695;28;20011;-70
2021/06/08 09:24:23;;;;;;;;;;;22.90;72.20;;;;;;5017810;28;20680;-70
2021/06/08 09:26:55;;;;;;;;;;;22.90;70.50;;;;;;5019791;28;20258;-71
2021/06/08 09:29:33;;;;;;;;;;;22.90;71.30;;;;;;5019195;28;19965;-70
2021/06/08 09:32:11;;;;;;;;;;;23.70;67.50;;;;;;5029805;28;19971;-69
2021/06/08 09:34:37;;;;;;;;;;;23.70;66.20;;;;;;5018995;28;20004;-69
2021/06/08 09:37:06;;;;;;;;;;;23.70;65.40;;;;;;5024421;28;20497;-70
2021/06/08 09:39:31;;;;;;;;;;;23.60;67.30;;;;;;5018165;28;19967;-70
2021/06/08 09:41:57;;;;;;;;;;;23.30;67.60;;;;;;5020050;28;19913;-70
2021/06/08 09:44:22;;;;;;;;;;;23.20;67.90;;;;;;5022205;28;20024;-70
2021/06/08 09:46:52;;;;;;;;;;;23.50;66.30;;;;;;5017772;28;19925;-70
2021/06/08 09:49:20;;;;;;;;;;;23.80;63.70;;;;;;5022221;28;19967;-71
2021/06/08 09:51:58;;;;;;;;;;;23.60;64.70;;;;;;5023125;28;19917;-70
2021/06/08 09:54:34;;;;;;;;;;;23.40;65.10;;;;;;5022596;28;19928;-70
2021/06/08 09:57:14;;;;;;;;;;;24.50;66.00;;;;;;5020631;28;19932;-70
2021/06/08 09:59:40;;;;;;;;;;;24.90;61.10;;;;;;5028231;28;19929;-70
2021/06/08 10:02:20;;;;;;;;;;;24.60;63.80;;;;;;5016000;28;20000;-70
2021/06/08 10:04:45;;;;;;;;;;;24.70;60.90;;;;;;5016432;28;19944;-70
2021/06/08 10:07:24;;;;;;;;;;;24.80;62.50;;;;;;5020858;28;20313;-70
2021/06/08 10:10:05;;;;;;;;;;;24.80;62.60;;;;;;5019185;28;20012;-71
2021/06/08 10:12:31;;;;;;;;;;;24.70;61.30;;;;;;5020127;28;19999;-70
2021/06/08 10:15:10;;;;;;;;;;;24.40;60.00;;;;;;5022124;28;20004;-70
2021/06/08 10:17:37;;;;;;;;;;;24.50;60.40;;;;;;5020248;28;20552;-70
2021/06/08 10:20:25;;;;;;;;;;;24.60;59.90;;;;;;5020362;28;20353;-70
2021/06/08 10:22:51;;;;;;;;;;;24.70;61.90;;;;;;5020951;28;19917;-71
2021/06/08 10:25:17;;;;;;;;;;;24.90;62.40;;;;;;5021333;28;19974;-71
2021/06/08 10:27:42;;;;;;;;;;;25.20;57.60;;;;;;5019005;28;19913;-69
2021/06/08 10:30:09;;;;;;;;;;;25.80;56.90;;;;;;5022578;28;20389;-69
2021/06/08 10:32:35;;;;;;;;;;;26.30;57.60;;;;;;5020254;28;20467;-71
2021/06/08 10:35:00;;;;;;;;;;;26.20;55.40;;;;;;5023362;28;19917;-70
2021/06/08 10:37:26;;;;;;;;;;;25.90;57.70;;;;;;5023545;28;20398;-70
2021/06/08 10:39:55;;;;;;;;;;;26.00;58.00;;;;;;5024091;28;19960;-71
2021/06/08 10:42:20;;;;;;;;;;;25.40;56.40;;;;;;5023185;28;19936;-70
2021/06/08 10:44:46;;;;;;;;;;;26.00;58.90;;;;;;5022055;28;20005;-72
2021/06/08 10:47:31;;;;;;;;;;;26.10;57.90;;;;;;5021340;28;20088;-70
2021/06/08 10:49:57;;;;;;;;;;;26.10;58.60;;;;;;5022675;28;19913;-70
2021/06/08 10:52:24;;;;;;;;;;;25.70;55.30;;;;;;5024304;28;19924;-70
2021/06/08 10:54:51;;;;;;;;;;;25.70;56.00;;;;;;5021813;28;19935;-70
2021/06/08 10:57:18;;;;;;;;;;;26.40;53.30;;;;;;5019272;28;20004;-72
2021/06/08 10:59:44;;;;;;;;;;;26.20;53.70;;;;;;5022887;28;19917;-72
2021/06/08 11:02:11;;;;;;;;;;;26.80;57.50;;;;;;5020744;28;19921;-70
2021/06/08 11:04:50;;;;;;;;;;;26.40;52.40;;;;;;5016167;28;20000;-70
2021/06/08 11:07:35;;;;;;;;;;;25.90;55.70;;;;;;5020843;28;19921;-71
2021/06/08 11:10:02;;;;;;;;;;;26.00;57.20;;;;;;5015008;28;19914;-71
2021/06/08 11:12:28;;;;;;;;;;;27.00;54.90;;;;;;5022019;28;19947;-70
2021/06/08 11:14:58;;;;;;;;;;;27.00;53.80;;;;;;5022002;28;19917;-71
2021/06/08 11:17:27;;;;;;;;;;;26.00;54.30;;;;;;5023280;28;19920;-69
2021/06/08 11:19:57;;;;;;;;;;;26.60;53.00;;;;;;5020317;28;19928;-70
2021/06/08 11:22:43;;;;;;;;;;;26.30;51.30;;;;;;5021783;28;19935;-69
2021/06/08 11:25:27;;;;;;;;;;;25.70;52.70;;;;;;5021894;28;19949;-70
2021/06/08 11:27:54;;;;;;;;;;;25.50;54.40;;;;;;5021170;28;20154;-71
2021/06/08 11:30:30;;;;;;;;;;;25.60;56.30;;;;;;5019772;28;19954;-70
2021/06/08 11:32:56;;;;;;;;;;;25.60;57.00;;;;;;5011364;28;19914;-71
2021/06/08 11:35:22;;;;;;;;;;;25.40;54.40;;;;;;5019246;28;19913;-69
2021/06/08 11:37:56;;;;;;;;;;;25.20;56.80;;;;;;5023712;28;19914;-70
2021/06/08 11:40:34;;;;;;;;;;;25.00;57.50;;;;;;5021427;28;20126;-71
2021/06/08 11:42:59;;;;;;;;;;;24.70;59.40;;;;;;5018939;28;19917;-69
2021/06/08 11:45:28;;;;;;;;;;;24.60;58.60;;;;;;5020159;28;19924;-70
2021/06/08 11:47:53;;;;;;;;;;;24.40;60.00;;;;;;5022234;28;19971;-69
2021/06/08 11:50:37;;;;;;;;;;;24.50;59.10;;;;;;5021139;28;20017;-70
2021/06/08 11:53:09;;;;;;;;;;;24.60;62.60;;;;;;5019928;28;19913;-72
2021/06/08 11:55:35;;;;;;;;;;;25.00;57.80;;;;;;5021536;28;20379;-70
2021/06/08 11:58:01;;;;;;;;;;;24.80;58.10;;;;;;5022356;28;20139;-70
2021/06/08 12:00:46;;;;;;;;;;;24.90;57.40;;;;;;5021981;28;19914;-71
2021/06/08 12:03:27;;;;;;;;;;;25.20;59.60;;;;;;5001544;28;19924;-70
2021/06/08 12:05:53;;;;;;;;;;;25.20;54.40;;;;;;5024457;28;19952;-71
2021/06/08 12:08:32;;;;;;;;;;;25.70;57.30;;;;;;5021122;28;20447;-69
2021/06/08 12:10:58;;;;;;;;;;;26.00;58.70;;;;;;5017234;28;19921;-72
2021/06/08 12:13:31;;;;;;;;;;;26.40;55.10;;;;;;5021878;28;19921;-70
2021/06/08 12:15:57;;;;;;;;;;;26.50;57.10;;;;;;5018647;28;22116;-71
2021/06/08 12:18:35;;;;;;;;;;;26.60;51.70;;;;;;5023023;28;19917;-70
2021/06/08 12:21:01;;;;;;;;;;;26.60;56.10;;;;;;5017972;28;20628;-71
2021/06/08 12:23:29;;;;;;;;;;;26.70;53.70;;;;;;5019278;28;20071;-71
2021/06/08 12:26:13;;;;;;;;;;;27.10;52.70;;;;;;5019185;28;19986;-72
2021/06/08 12:28:40;;;;;;;;;;;27.60;50.00;;;;;;5018103;28;19913;-71
2021/06/08 12:31:12;;;;;;;;;;;28.30;51.70;;;;;;5019471;28;19914;-73
2021/06/08 12:33:38;;;;;;;;;;;29.00;50.50;;;;;;5017984;28;19925;-71
2021/06/08 12:36:04;;;;;;;;;;;29.10;45.70;;;;;;5017838;28;20392;-71
2021/06/08 12:38:30;;;;;;;;;;;29.10;47.90;;;;;;5019103;28;19918;-71
2021/06/08 12:41:08;;;;;;;;;;;29.70;42.20;;;;;;5018772;28;19921;-70
2021/06/08 12:43:51;;;;;;;;;;;29.30;42.40;;;;;;5020142;28;20408;-72
2021/06/08 12:46:31;;;;;;;;;;;29.80;43.70;;;;;;5019488;28;20016;-71
2021/06/08 12:49:09;;;;;;;;;;;29.50;46.30;;;;;;5019147;28;20842;-70
2021/06/08 12:51:37;;;;;;;;;;;30.00;42.10;;;;;;5018117;28;20058;-71
2021/06/08 12:54:07;;;;;;;;;;;29.60;41.80;;;;;;5020405;28;20058;-69
2021/06/08 12:56:33;;;;;;;;;;;30.10;44.10;;;;;;5019068;28;19928;-69
2021/06/08 12:58:59;;;;;;;;;;;30.70;44.60;;;;;;5018097;28;19921;-71
2021/06/08 13:01:25;;;;;;;;;;;31.40;38.80;;;;;;5019569;28;19921;-71
2021/06/08 13:03:51;;;;;;;;;;;30.70;38.40;;;;;;5017993;28;20019;-71
2021/06/08 13:06:20;;;;;;;;;;;30.80;39.80;;;;;;5019233;28;20402;-70
2021/06/08 13:08:47;;;;;;;;;;;31.30;44.70;;;;;;5017373;28;19976;-71
2021/06/08 13:11:26;;;;;;;;;;;31.40;38.00;;;;;;5021643;28;20273;-70
2021/06/08 13:13:52;;;;;;;;;;;31.70;37.70;;;;;;5022145;28;19948;-72
2021/06/08 13:16:28;;;;;;;;;;;30.50;41.90;;;;;;5020420;28;19991;-70
2021/06/08 13:18:54;;;;;;;;;;;30.50;41.70;;;;;;5022947;28;20512;-71
2021/06/08 13:21:30;;;;;;;;;;;30.70;42.70;;;;;;5017380;28;19929;-72
2021/06/08 13:24:12;;;;;;;;;;;30.40;41.60;;;;;;5021962;28;19977;-72
2021/06/08 13:26:38;;;;;;;;;;;31.20;41.30;;;;;;5020926;28;19953;-71
2021/06/08 13:29:14;;;;;;;;;;;31.50;39.40;;;;;;5023008;28;20030;-71
2021/06/08 13:31:40;;;;;;;;;;;31.70;40.30;;;;;;5020247;28;19918;-70
2021/06/08 13:34:19;;;;;;;;;;;30.90;37.70;;;;;;5021433;28;20382;-70
2021/06/08 13:36:45;;;;;;;;;;;30.00;41.60;;;;;;5022778;28;19913;-72
2021/06/08 13:39:21;;;;;;;;;;;29.10;44.70;;;;;;5024012;28;19928;-71
2021/06/08 13:41:48;;;;;;;;;;;29.00;45.70;;;;;;5023006;28;19917;-71
2021/06/08 13:44:13;;;;;;;;;;;30.00;41.50;;;;;;5018221;28;20130;-71
2021/06/08 13:46:51;;;;;;;;;;;30.90;38.30;;;;;;5020508;28;19913;-70
2021/06/08 13:49:17;;;;;;;;;;;31.00;39.40;;;;;;5022229;28;20001;-70
2021/06/08 13:51:49;;;;;;;;;;;31.10;36.60;;;;;;5020277;28;19913;-69
2021/06/08 13:54:19;;;;;;;;;;;32.20;40.90;;;;;;5022415;28;19917;-71
2021/06/08 13:57:01;;;;;;;;;;;32.40;36.80;;;;;;5022140;28;19936;-72
2021/06/08 14:02:38;;;;;;;;;;;31.90;36.80;;;;;;5019895;28;20287;-72
2021/06/08 14:05:03;;;;;;;;;;;32.80;35.30;;;;;;5021260;28;19921;-70
2021/06/08 14:07:29;;;;;;;;;;;32.50;37.70;;;;;;5022653;28;19956;-71
2021/06/08 14:09:55;;;;;;;;;;;33.50;34.70;;;;;;5021856;28;20016;-71
2021/06/08 14:12:20;;;;;;;;;;;32.90;36.20;;;;;;5020208;28;19996;-71
2021/06/08 14:14:46;;;;;;;;;;;31.90;34.70;;;;;;5020344;28;20326;-70
2021/06/08 14:17:19;;;;;;;;;;;31.90;38.20;;;;;;5022216;28;19952;-71
2021/06/08 14:19:49;;;;;;;;;;;31.00;35.60;;;;;;5021997;28;19917;-71
2021/06/08 14:22:15;;;;;;;;;;;31.80;38.40;;;;;;5016790;28;19940;-71
2021/06/08 14:24:41;;;;;;;;;;;31.70;36.60;;;;;;5019762;28;19921;-72